Time;durP1;ratioP1;P1;durP2;ratioP2;P2;SDS_P1;SDS_P2;PMS_P1;PMS_P2;Temp;Humidity;BMP_temperature;BMP_pressure;BME280_temperature;BME280_humidity;BME280_pressure;Samples;Min_cycle;Max_cycle;Signal;HPM_P1;HPM_P2
2022/07/06 00:02:32;;;;;;;5.95;4.97;;;18.90;99.90;;;17.63;87.26;99926.63;10356021;28;96571;-88
2022/07/06 00:07:36;;;;;;;4.80;4.40;;;18.90;99.90;;;17.60;87.27;99938.66;10353800;28;97253;-85
2022/07/06 00:12:39;;;;;;;6.57;4.80;;;18.90;99.90;;;17.55;87.09;99935.78;10368586;28;96746;-86
2022/07/06 00:17:42;;;;;;;7.20;4.90;;;18.90;99.90;;;17.49;87.32;99925.09;10368451;28;96884;-86
2022/07/06 00:22:45;;;;;;;4.80;4.20;;;18.80;99.90;;;17.44;87.38;99930.31;10373761;28;98528;-87
2022/07/06 00:27:48;;;;;;;7.43;5.00;;;18.80;99.90;;;17.38;87.27;99935.50;10357264;28;96649;-85
2022/07/06 00:32:51;;;;;;;5.05;4.50;;;18.70;99.90;;;17.36;87.63;99932.22;10346432;28;96478;-88
2022/07/06 00:37:54;;;;;;;7.97;4.80;;;18.70;99.90;;;17.34;87.80;99928.13;10360255;28;97484;-87
2022/07/06 00:42:57;;;;;;;5.03;4.20;;;18.60;99.90;;;17.31;87.81;99940.13;10336125;28;96595;-86
2022/07/06 00:48:01;;;;;;;4.75;4.35;;;18.60;99.90;;;17.27;87.62;99940.75;10355452;28;96766;-88
2022/07/06 00:53:07;;;;;;;4.70;4.22;;;18.60;99.90;;;17.25;88.01;99935.63;10355619;28;96933;-85
2022/07/06 00:58:10;;;;;;;4.72;4.10;;;18.60;99.90;;;17.24;87.94;99928.59;10338049;28;96654;-84
2022/07/06 01:03:13;;;;;;;6.00;3.72;;;18.60;99.90;;;17.26;87.93;99921.13;10330991;28;96803;-84
2022/07/06 01:08:16;;;;;;;4.43;4.03;;;18.60;99.90;;;17.27;87.97;99935.38;10337538;28;96821;-84
2022/07/06 01:13:19;;;;;;;8.50;3.42;;;18.60;99.90;;;17.30;87.63;99933.09;10342314;28;96728;-85
2022/07/06 01:18:22;;;;;;;3.95;3.22;;;18.60;99.90;;;17.38;87.43;99924.75;10338037;28;96780;-85
2022/07/06 01:23:26;;;;;;;3.92;3.42;;;18.70;99.90;;;17.49;87.23;99930.47;10355398;28;96494;-85
2022/07/06 01:28:30;;;;;;;3.20;2.90;;;18.80;99.90;;;17.58;87.00;99929.16;10353675;28;96658;-86
2022/07/06 01:33:33;;;;;;;3.20;2.60;;;18.90;99.90;;;17.64;86.92;99939.03;10354967;28;96564;-86
2022/07/06 01:38:59;;;;;;;3.13;2.83;;;19.10;99.90;;;17.68;86.04;99945.59;10337662;28;97559;-85
2022/07/06 01:44:03;;;;;;;3.92;3.03;;;19.10;99.90;;;17.69;85.87;99933.81;10353975;28;96622;-86
2022/07/06 01:49:06;;;;;;;4.38;2.88;;;19.10;99.90;;;17.69;85.47;99939.19;10366260;28;96686;-86
2022/07/06 01:54:09;;;;;;;4.10;2.70;;;19.10;99.90;;;17.61;84.82;99937.59;10353754;28;97357;-85
2022/07/06 01:59:12;;;;;;;3.28;2.97;;;19.10;99.90;;;17.57;84.38;99935.56;10343344;28;96631;-86
2022/07/06 02:04:15;;;;;;;405.67;26.73;;;19.00;99.90;;;17.52;84.27;99946.19;10354381;28;96632;-90
2022/07/06 02:09:18;;;;;;;4.70;3.08;;;18.90;99.90;;;17.50;84.39;99946.38;10344412;28;96549;-85
2022/07/06 02:14:21;;;;;;;8.32;2.63;;;18.90;99.90;;;17.50;84.25;99945.56;10339490;28;97394;-87
2022/07/06 02:19:24;;;;;;;6.10;3.17;;;18.80;99.90;;;17.44;84.15;99949.09;10346842;28;96564;-88
2022/07/06 02:24:27;;;;;;;3.92;3.10;;;18.70;99.90;;;17.39;84.19;99937.19;10309571;28;97462;-86
2022/07/06 02:29:29;;;;;;;4.15;3.10;;;18.70;99.90;;;17.37;84.01;99943.78;10354718;28;96609;-86
2022/07/06 02:34:32;;;;;;;3.28;2.97;;;18.70;99.90;;;17.35;84.23;99938.66;10359375;28;96920;-85
2022/07/06 02:39:35;;;;;;;5.20;3.03;;;18.70;99.90;;;17.33;84.49;99937.19;10377474;28;97991;-84
2022/07/06 02:44:38;;;;;;;3.38;3.00;;;18.70;99.90;;;17.31;84.22;99945.47;10360884;28;96930;-86
2022/07/06 02:49:41;;;;;;;3.85;3.28;;;18.60;99.90;;;17.29;84.37;99952.94;10376529;28;96730;-85
2022/07/06 02:54:44;;;;;;;3.80;3.40;;;18.60;99.90;;;17.26;84.33;99948.00;10375186;28;96664;-85
2022/07/06 02:59:49;;;;;;;3.92;3.50;;;18.60;99.90;;;17.24;84.47;99960.81;10357628;28;96584;-84
2022/07/06 03:04:52;;;;;;;6.05;3.90;;;18.60;99.90;;;17.22;84.60;99973.66;10358338;28;96664;-86
2022/07/06 03:09:55;;;;;;;7.63;3.80;;;18.60;99.90;;;17.22;84.82;99978.22;10358591;28;96826;-85
2022/07/06 03:14:58;;;;;;;3.90;3.60;;;18.60;99.90;;;17.25;85.10;100000.06;10342595;28;98306;-85
2022/07/06 03:20:01;;;;;;;4.55;3.78;;;18.60;99.90;;;17.27;85.15;100010.59;10348239;28;97377;-85
2022/07/06 03:25:04;;;;;;;4.90;4.10;;;18.60;99.90;;;17.25;84.98;100008.13;10344373;28;97011;-86
2022/07/06 03:30:07;;;;;;;4.72;4.28;;;18.70;99.90;;;17.28;85.05;100010.38;10366056;28;96767;-84
2022/07/06 03:35:16;;;;;;;4.25;3.72;;;18.70;99.90;;;17.33;84.67;100026.69;10357813;28;97673;-84
2022/07/06 03:40:19;;;;;;;5.28;4.10;;;18.70;99.90;;;17.39;84.17;100019.59;10337734;28;98190;-83
2022/07/06 03:45:22;;;;;;;4.63;4.18;;;18.70;99.90;;;17.42;84.20;100023.72;10373300;28;96691;-87
2022/07/06 03:50:25;;;;;;;5.20;4.70;;;18.70;99.90;;;17.44;84.20;100019.78;10337955;28;96889;-84
2022/07/06 03:55:28;;;;;;;6.00;4.40;;;18.80;99.90;;;17.48;83.88;100017.47;10365316;28;96882;-86
2022/07/06 04:00:32;;;;;;;7.38;4.75;;;18.80;99.90;;;17.48;84.08;100030.91;10355359;28;98207;-88
2022/07/06 04:05:35;;;;;;;5.88;4.43;;;18.80;99.90;;;17.50;83.84;100023.44;10341256;28;96728;-86
2022/07/06 04:10:38;;;;;;;7.80;4.65;;;18.80;99.90;;;17.52;83.54;100005.28;10375570;28;97794;-84
2022/07/06 04:15:41;;;;;;;6.30;4.32;;;18.90;99.90;;;17.54;83.90;100009.38;10370065;28;98504;-86
2022/07/06 04:20:43;;;;;;;5.05;4.13;;;18.90;99.90;;;17.60;83.47;100015.75;10374692;28;96535;-86
2022/07/06 04:25:46;;;;;;;4.93;4.47;;;18.90;99.90;;;17.59;83.10;100006.88;10353099;28;96913;-85
2022/07/06 04:30:50;;;;;;;5.68;4.40;;;18.90;99.90;;;17.67;82.93;99998.53;10333290;28;96718;-85
2022/07/06 04:35:52;;;;;;;4.60;4.10;;;19.00;99.90;;;17.74;82.80;100000.38;10356922;28;96550;-85
2022/07/06 04:40:55;;;;;;;4.47;4.07;;;19.10;99.90;;;17.86;83.05;100007.50;10353941;28;96943;-84
2022/07/06 04:46:00;;;;;;;4.40;3.97;;;19.20;99.90;;;17.99;82.13;100006.53;10346247;28;96727;-86
2022/07/06 04:51:03;;;;;;;5.78;3.40;;;19.30;99.90;;;18.09;81.52;100001.50;10333399;28;98323;-85
2022/07/06 04:56:06;;;;;;;4.72;3.78;;;19.40;99.90;;;18.14;81.08;100007.03;10337601;28;96676;-86
2022/07/06 05:01:10;;;;;;;5.53;3.50;;;19.50;99.90;;;18.22;80.62;100018.53;10353588;28;98483;-87
2022/07/06 05:06:13;;;;;;;5.47;3.90;;;19.50;99.90;;;18.28;80.06;100015.78;10353972;28;97500;-84
2022/07/06 05:11:16;;;;;;;4.45;4.05;;;19.60;99.90;;;18.36;79.58;100033.53;10344891;28;98346;-84
2022/07/06 05:16:19;;;;;;;4.32;3.65;;;19.70;99.90;;;18.49;79.91;100032.56;10324285;28;96624;-84
2022/07/06 05:21:22;;;;;;;245.68;71.00;;;19.80;99.90;;;18.61;79.26;100046.91;10350834;28;96738;-84
2022/07/06 05:26:25;;;;;;;65.53;9.63;;;19.90;99.90;;;18.72;78.77;100040.81;10349679;28;98457;-84
2022/07/06 05:31:28;;;;;;;5.35;3.72;;;20.10;99.90;;;18.85;77.55;100051.44;10340274;28;96613;-86
2022/07/06 05:36:31;;;;;;;4.35;3.47;;;20.10;99.90;;;19.00;77.10;100048.31;10376613;27;96531;-85
2022/07/06 05:41:34;;;;;;;6.28;3.88;;;20.30;99.90;;;19.14;76.78;100052.50;10378229;28;96478;-86
2022/07/06 05:46:36;;;;;;;3.72;3.35;;;20.40;99.90;;;19.27;76.19;100050.69;10346372;28;96954;-85
2022/07/06 05:51:39;;;;;;;4.15;3.58;;;20.50;99.90;;;19.37;75.85;100057.19;10347252;28;96601;-86
2022/07/06 05:56:42;;;;;;;4.03;3.60;;;20.60;99.90;;;19.55;74.68;100067.06;10330207;28;97412;-86
2022/07/06 06:01:45;;;;;;;4.05;3.55;;;20.80;99.90;;;19.67;74.22;100077.91;10374156;28;96550;-85
2022/07/06 06:06:48;;;;;;;3.85;3.35;;;20.90;99.90;;;19.80;72.83;100082.31;10380728;28;98384;-88
2022/07/06 06:11:52;;;;;;;3.80;3.30;;;21.00;99.90;;;19.92;72.26;100070.47;10361811;28;96810;-86
2022/07/06 06:16:55;;;;;;;6.50;3.30;;;21.10;99.90;;;20.09;71.94;100083.25;10362671;28;96491;-85
2022/07/06 06:21:58;;;;;;;26.80;4.57;;;21.30;99.90;;;20.26;72.23;100076.13;10374845;28;96552;-84
2022/07/06 06:27:01;;;;;;;57.03;8.35;;;21.50;99.90;;;20.45;71.27;100075.00;10362020;28;96853;-86
2022/07/06 06:32:08;;;;;;;146.57;13.90;;;21.70;99.90;;;20.64;70.25;100069.47;10343746;28;97108;-85
2022/07/06 06:37:11;;;;;;;5.35;3.20;;;21.90;99.90;;;20.80;69.04;100066.84;10345206;28;97387;-85
2022/07/06 06:42:14;;;;;;;22.83;4.43;;;22.00;99.90;;;20.97;67.73;100079.59;10376039;28;96961;-86
2022/07/06 06:47:19;;;;;;;70.60;12.15;;;22.20;99.90;;;21.16;68.17;100075.66;10357989;28;98120;-85
2022/07/06 06:52:22;;;;;;;3.80;3.05;;;22.40;99.90;;;21.42;67.34;100087.00;10359623;28;98304;-86
2022/07/06 06:57:43;;;;;;;4.05;3.33;;;22.60;99.90;;;21.59;66.44;100085.16;10323324;28;96594;-84
2022/07/06 07:02:47;;;;;;;134.45;11.40;;;22.90;99.90;;;21.77;66.37;100092.22;10357698;28;96843;-85
2022/07/06 07:07:50;;;;;;;37.95;4.63;;;23.00;99.90;;;21.96;65.26;100090.97;10358508;28;96659;-85
2022/07/06 07:12:53;;;;;;;123.95;19.80;;;23.20;99.40;;;22.09;63.79;100087.94;10359738;28;96554;-85
2022/07/06 07:17:56;;;;;;;3.40;2.63;;;23.40;98.10;;;22.26;63.15;100092.53;10351394;28;96496;-85
2022/07/06 07:23:01;;;;;;;4.53;2.45;;;23.50;97.40;;;22.37;62.01;100080.78;10376136;28;96644;-85
2022/07/06 07:28:04;;;;;;;3.33;2.30;;;23.60;96.80;;;22.54;61.60;100087.00;10358364;28;97022;-85
2022/07/06 07:33:07;;;;;;;3.60;2.17;;;23.80;96.40;;;22.69;60.92;100084.50;10360249;28;96550;-84
2022/07/06 07:38:10;;;;;;;2.78;2.53;;;24.00;95.70;;;22.91;60.60;100083.72;10346960;28;97595;-85
2022/07/06 07:43:13;;;;;;;3.92;2.00;;;24.10;95.30;;;23.15;58.42;100082.41;10355216;28;96865;-85
2022/07/06 07:48:16;;;;;;;2.22;2.03;;;24.40;93.50;;;23.32;57.62;100086.91;10376190;28;96581;-84
2022/07/06 07:53:19;;;;;;;2.83;1.65;;;24.60;92.80;;;23.52;57.32;100087.16;10357949;28;96839;-84
2022/07/06 07:58:22;;;;;;;34.10;2.85;;;24.70;92.30;;;23.68;56.42;100091.66;10374259;28;96616;-85
2022/07/06 08:03:26;;;;;;;36.22;2.70;;;24.90;91.60;;;23.85;55.35;100098.88;10357168;28;97200;-84
2022/07/06 08:08:29;;;;;;;2.00;1.80;;;25.10;90.70;;;24.04;54.61;100106.34;10374266;28;96535;-84
2022/07/06 08:13:31;;;;;;;2.00;1.50;;;25.30;89.90;;;24.28;53.35;100095.16;10359507;28;96664;-87
2022/07/06 08:18:34;;;;;;;38.53;6.35;;;25.50;89.10;;;24.46;51.82;100107.53;10341327;28;96530;-85
2022/07/06 08:23:37;;;;;;;2.35;1.80;;;25.70;85.50;;;24.63;50.67;100110.88;10357407;28;96716;-85
2022/07/06 08:28:40;;;;;;;2.80;1.95;;;25.90;82.50;;;24.66;50.33;100110.38;10372710;28;98046;-86
2022/07/06 08:33:44;;;;;;;3.08;1.80;;;25.90;80.70;;;24.87;49.50;100113.19;10376031;28;96483;-86
2022/07/06 08:38:48;;;;;;;2.40;1.67;;;26.10;80.10;;;25.12;48.89;100110.63;10357163;28;97347;-87
2022/07/06 08:43:52;;;;;;;4.05;2.00;;;26.40;78.80;;;25.41;49.33;100112.91;10361738;28;97417;-88
2022/07/06 08:48:56;;;;;;;2.38;1.73;;;26.70;78.40;;;25.62;48.42;100114.59;10371264;28;96637;-86
2022/07/06 08:54:01;;;;;;;3.20;2.10;;;26.90;76.80;;;25.70;47.94;100105.88;10354911;28;96629;-85
2022/07/06 08:59:07;;;;;;;125.72;23.92;;;27.00;75.70;;;25.73;47.25;100110.84;10341353;28;96450;-87
2022/07/06 09:04:15;;;;;;;3.90;2.33;;;27.10;74.40;;;25.86;46.71;100114.94;10354842;28;98756;-85
2022/07/06 09:09:23;;;;;;;2.85;2.55;;;27.20;73.30;;;25.83;45.80;100110.81;10370776;28;96720;-86
2022/07/06 09:14:27;;;;;;;3.40;2.30;;;27.20;71.30;;;25.70;46.09;100100.44;10346727;28;96585;-85
2022/07/06 09:19:32;;;;;;;3.38;2.47;;;27.00;70.70;;;25.69;46.05;100093.38;10348802;28;97096;-85
2022/07/06 09:24:42;;;;;;;5.03;2.45;;;27.00;70.30;;;25.83;45.33;100089.06;10345788;28;96942;-85
2022/07/06 09:29:46;;;;;;;4.47;2.40;;;27.00;69.50;;;25.98;44.88;100098.34;10339642;28;97566;-85
2022/07/06 09:34:49;;;;;;;3.33;2.55;;;27.20;68.90;;;26.08;44.59;100103.75;10346905;28;96652;-86
2022/07/06 09:39:52;;;;;;;4.18;2.53;;;27.30;68.00;;;26.21;44.15;100094.22;10349410;28;97019;-85
2022/07/06 09:44:56;;;;;;;3.83;2.58;;;27.40;67.60;;;26.23;43.17;100090.16;10329967;28;96760;-85
2022/07/06 09:50:00;;;;;;;4.50;2.45;;;27.40;65.80;;;26.44;43.76;100103.75;10335123;28;96676;-85
2022/07/06 09:55:16;;;;;;;5.47;2.08;;;27.60;66.50;;;26.67;42.64;100106.69;10352094;28;97137;-85
2022/07/06 10:00:19;;;;;;;3.70;2.28;;;27.90;65.60;;;26.84;41.46;100109.13;10359042;28;96568;-87
2022/07/06 10:05:29;;;;;;;3.67;2.35;;;28.10;62.70;;;26.87;40.56;100108.56;10368825;28;96636;-86
2022/07/06 10:10:32;;;;;;;3.03;2.53;;;28.10;61.50;;;26.90;40.46;100110.72;10353218;28;97059;-87
2022/07/06 10:15:38;;;;;;;2.85;2.20;;;28.10;61.70;;;27.00;40.20;100100.91;10349751;28;98644;-88
2022/07/06 10:20:41;;;;;;;4.25;2.10;;;28.20;61.10;;;27.20;40.05;100100.81;10365505;28;98648;-86
2022/07/06 10:25:45;;;;;;;4.72;2.38;;;28.40;60.70;;;27.33;38.74;100093.94;10353730;28;96665;-88
2022/07/06 10:30:50;;;;;;;7.25;2.42;;;28.60;59.50;;;27.52;37.73;100091.34;10344113;28;96589;-85
2022/07/06 10:35:55;;;;;;;4.38;2.60;;;28.80;57.90;;;27.71;37.61;100085.00;10358830;28;96651;-88
2022/07/06 10:41:09;;;;;;;6.75;1.90;;;28.90;57.40;;;27.92;36.01;100102.03;10360415;28;96582;-86
2022/07/06 10:46:20;;;;;;;2.47;2.22;;;29.20;54.50;;;27.98;35.67;100089.97;10356227;28;96712;-86
2022/07/06 10:51:31;;;;;;;42.65;6.43;;;29.20;54.70;;;27.93;34.47;100090.00;10361806;28;96629;-86
2022/07/06 10:56:46;;;;;;;3.95;2.40;;;29.10;52.90;;;28.04;34.54;100098.94;10340802;28;96698;-85
2022/07/06 11:02:16;;;;;;;2.97;2.42;;;29.20;53.80;;;28.28;34.53;100094.34;10349272;28;98850;-86
2022/07/06 11:07:20;;;;;;;3.28;2.20;;;29.40;52.30;;;28.47;33.67;100105.38;10350933;28;98223;-86
2022/07/06 11:12:24;;;;;;;3.80;2.60;;;29.60;52.20;;;28.53;33.24;100096.03;10349339;28;96645;-86
2022/07/06 11:17:27;;;;;;;3.05;2.53;;;29.70;51.60;;;28.69;33.71;100093.16;10356171;28;97426;-86
2022/07/06 11:22:30;;;;;;;2.78;2.55;;;29.80;51.70;;;28.82;32.98;100108.03;10348390;28;96627;-86
2022/07/06 11:27:34;;;;;;;5.68;2.60;;;30.00;50.90;;;28.90;31.79;100118.31;10355197;28;96982;-86
2022/07/06 11:32:37;;;;;;;3.22;2.90;;;30.00;49.70;;;28.93;32.70;100093.97;10351710;28;98134;-85
2022/07/06 11:37:42;;;;;;;4.03;2.67;;;30.10;50.90;;;29.20;32.19;100103.47;10367290;28;97218;-85
2022/07/06 11:42:54;;;;;;;5.78;2.85;;;30.30;50.20;;;29.30;31.18;100104.16;10355392;28;96748;-86
2022/07/06 11:48:14;;;;;;;60.03;4.82;;;30.50;49.00;;;29.43;30.87;100105.34;10357213;28;96698;-86
2022/07/06 11:53:17;;;;;;;4.00;2.67;;;30.60;48.00;;;29.23;29.90;100108.38;10352078;28;96754;-85
2022/07/06 11:58:23;;;;;;;3.40;2.45;;;30.50;47.30;;;28.93;29.24;100104.91;10369183;28;96655;-87
2022/07/06 12:03:26;;;;;;;3.13;2.83;;;30.10;46.00;;;29.04;29.91;100111.91;10334094;28;97387;-85
2022/07/06 12:08:30;;;;;;;3.38;2.63;;;30.10;46.80;;;29.11;29.68;100099.78;10372611;28;98676;-87
2022/07/06 12:13:39;;;;;;;4.50;2.42;;;30.20;46.40;;;28.77;28.97;100112.44;10330846;28;100278;-86
2022/07/06 12:18:47;;;;;;;4.75;2.60;;;30.00;45.40;;;28.37;29.12;100116.44;10370222;28;97464;-84
2022/07/06 12:23:53;;;;;;;4.40;2.50;;;29.50;45.90;;;28.56;29.86;100105.59;10355425;28;96682;-85
2022/07/06 12:29:05;;;;;;;3.80;2.22;;;29.60;46.60;;;28.83;29.08;100105.00;10353071;28;97151;-84
2022/07/06 12:34:26;;;;;;;4.75;2.40;;;30.00;45.00;;;29.08;28.58;100092.97;10358045;28;96602;-85
2022/07/06 12:39:29;;;;;;;6.90;2.53;;;30.20;45.40;;;29.49;28.10;100090.47;10356421;28;98199;-86
2022/07/06 12:44:41;;;;;;;2.17;1.98;;;30.50;45.40;;;29.81;27.78;100103.47;10328865;28;97378;-85
2022/07/06 12:49:44;;;;;;;2.83;1.80;;;30.90;44.70;;;30.00;26.22;100100.69;10363936;28;97176;-85
2022/07/06 12:54:50;;;;;;;5.43;2.35;;;31.10;42.60;;;29.95;26.42;100092.56;10349465;28;97669;-85
2022/07/06 12:59:53;;;;;;;3.53;2.40;;;31.10;42.80;;;30.10;26.88;100088.72;10360352;28;97014;-85
2022/07/06 13:05:06;;;;;;;3.60;1.58;;;31.10;43.30;;;30.30;26.51;100099.38;10344062;28;97789;-86
2022/07/06 13:10:13;;;;;;;828.65;55.05;;;31.30;43.20;;;30.48;25.93;100089.47;10351273;28;97335;-86
2022/07/06 13:15:16;;;;;;;4.57;1.90;;;31.60;42.90;;;30.42;25.69;100079.72;10337622;28;97407;-87
2022/07/06 13:20:19;;;;;;;3.50;1.60;;;31.50;42.10;;;30.30;26.67;100109.53;10345419;28;99502;-87
2022/07/06 13:25:22;;;;;;;4.63;2.00;;;31.40;43.30;;;30.10;28.09;100106.00;10367155;28;96490;-87
2022/07/06 13:30:25;;;;;;;4.22;2.17;;;31.20;44.40;;;30.17;28.38;100111.13;10350046;28;96749;-88
2022/07/06 13:35:28;;;;;;;4.72;2.15;;;31.20;45.00;;;30.14;27.91;100111.72;10336344;28;98333;-88
2022/07/06 13:40:32;;;;;;;3.85;1.98;;;31.30;44.40;;;30.23;28.74;100103.59;10350282;28;97965;-87
2022/07/06 13:45:34;;;;;;;3.85;2.00;;;31.40;45.10;;;30.36;28.25;100092.69;10353862;28;97391;-87
2022/07/06 13:50:38;;;;;;;4.50;2.08;;;31.60;44.90;;;30.35;27.86;100109.44;10348564;28;96807;-86
2022/07/06 13:55:41;;;;;;;2.20;1.70;;;31.60;44.50;;;30.26;28.12;100122.19;10346222;28;97856;-83
2022/07/06 14:00:45;;;;;;;4.38;1.58;;;31.40;44.50;;;30.21;27.98;100112.13;10344726;28;96743;-85
2022/07/06 14:05:48;;;;;;;4.80;1.80;;;31.40;44.10;;;30.25;27.79;100118.66;10375254;28;97093;-86
2022/07/06 14:10:53;;;;;;;3.65;2.08;;;31.40;44.20;;;30.23;28.26;100114.56;10376885;28;96511;-86
2022/07/06 14:15:56;;;;;;;6.03;1.92;;;31.40;44.60;;;30.13;26.94;100112.03;10356560;28;96604;-86
2022/07/06 14:21:00;;;;;;;2.95;1.73;;;31.20;43.30;;;30.10;27.65;100106.00;10360807;28;96746;-86
2022/07/06 14:26:03;;;;;;;3.50;1.83;;;31.20;44.00;;;30.14;28.12;100110.91;10378691;28;96530;-88
2022/07/06 14:31:07;;;;;;;2.55;1.85;;;31.20;44.30;;;30.23;27.84;100101.72;10351471;28;96633;-86
2022/07/06 14:36:10;;;;;;;1.83;1.20;;;31.30;44.20;;;30.34;26.37;100105.88;10345452;28;97164;-87
2022/07/06 14:41:13;;;;;;;1.30;0.95;;;31.40;42.90;;;30.36;26.19;100109.13;10360834;28;96997;-88
2022/07/06 14:46:16;;;;;;;3.53;0.88;;;31.40;42.30;;;30.38;25.79;100111.56;10377933;28;97669;-86
2022/07/06 14:51:19;;;;;;;0.57;0.50;;;31.40;41.80;;;30.30;25.22;100115.00;10377406;28;96596;-88
2022/07/06 14:56:22;;;;;;;1.15;0.63;;;31.30;41.30;;;30.17;25.30;100099.31;10349880;28;97279;-88
2022/07/06 15:01:25;;;;;;;0.77;0.70;;;31.20;41.10;;;29.99;24.22;100104.53;10348005;28;97546;-87
2022/07/06 15:06:28;;;;;;;0.80;0.70;;;31.00;40.20;;;29.61;25.00;100101.03;10357366;28;96830;-87
2022/07/06 15:11:52;;;;;;;2.83;0.90;;;30.70;41.00;;;29.32;25.18;100109.34;10371259;28;97281;-87
2022/07/06 15:16:55;;;;;;;2.25;0.73;;;30.30;41.10;;;29.41;25.56;100109.50;10363191;28;98214;-86
2022/07/06 15:21:58;;;;;;;1.58;0.60;;;30.30;41.10;;;29.34;25.43;100101.66;10364054;28;97893;-86
2022/07/06 15:27:05;;;;;;;1.65;0.60;;;30.20;40.90;;;29.29;24.96;100115.41;10357298;28;96924;-85
2022/07/06 15:32:08;;;;;;;1.33;0.85;;;30.20;40.60;;;29.08;24.44;100117.59;10359349;28;96869;-86
2022/07/06 15:37:11;;;;;;;1.60;0.70;;;30.00;40.10;;;28.89;25.43;100113.97;10358621;28;96568;-85
2022/07/06 15:42:14;;;;;;;2.17;0.60;;;29.80;41.00;;;28.85;25.50;100110.16;10378945;28;96520;-85
2022/07/06 15:47:18;;;;;;;1.33;0.65;;;29.70;41.20;;;28.76;26.53;100099.88;10335214;28;96917;-86
2022/07/06 15:52:21;;;;;;;1.17;0.65;;;29.60;41.90;;;28.69;26.07;100125.94;10356302;28;96874;-85
2022/07/06 15:57:25;;;;;;;1.30;0.60;;;29.60;41.90;;;28.59;26.65;100126.88;10378355;28;96744;-85
2022/07/06 16:02:27;;;;;;;2.65;0.63;;;29.50;42.10;;;28.59;26.44;100121.41;10357673;28;96630;-87
2022/07/06 16:07:31;;;;;;;3.83;0.80;;;29.50;41.80;;;28.60;26.57;100133.13;10357993;28;96553;-85
2022/07/06 16:12:54;;;;;;;1.25;0.90;;;29.60;41.90;;;28.78;26.86;100129.66;10359824;28;96813;-86
2022/07/06 16:17:57;;;;;;;2.38;0.70;;;29.80;42.10;;;28.64;27.02;100136.94;10376148;28;96539;-84
2022/07/06 16:23:00;;;;;;;2.97;1.00;;;29.80;42.10;;;28.79;27.08;100136.78;10373464;28;96478;-84
2022/07/06 16:28:03;;;;;;;2.13;0.90;;;29.90;42.30;;;28.91;26.57;100137.19;10358446;28;96519;-85
2022/07/06 16:33:06;;;;;;;1.38;0.88;;;30.10;42.00;;;28.95;26.68;100143.72;10372729;28;97036;-84
2022/07/06 16:38:09;;;;;;;8.43;1.10;;;30.20;41.90;;;28.90;26.85;100140.19;10357286;28;96573;-85
2022/07/06 16:43:14;;;;;;;1.98;1.00;;;30.10;42.40;;;28.86;27.15;100142.72;10356878;28;96774;-84
2022/07/06 16:48:18;;;;;;;1.08;0.80;;;30.10;42.30;;;28.60;27.62;100146.81;10354119;28;96699;-84
2022/07/06 16:53:22;;;;;;;1.20;0.80;;;29.80;42.80;;;28.60;27.84;100144.06;10345203;28;98236;-84
2022/07/06 16:58:25;;;;;;;3.17;1.08;;;29.70;43.40;;;28.61;28.16;100154.75;10345378;28;96814;-84
2022/07/06 17:03:28;;;;;;;2.50;0.95;;;29.70;43.00;;;28.49;27.73;100151.59;10354960;28;96730;-85
2022/07/06 17:08:32;;;;;;;2.15;0.98;;;29.70;42.70;;;28.26;27.58;100161.31;10357580;28;98286;-84
2022/07/06 17:13:36;;;;;;;2.10;0.70;;;29.50;42.60;;;28.10;27.46;100152.41;10370943;28;97126;-84
2022/07/06 17:18:39;;;;;;;2.55;1.20;;;29.30;42.20;;;27.98;28.03;100163.69;10373365;28;96596;-84
2022/07/06 17:23:43;;;;;;;2.83;0.82;;;29.10;42.60;;;27.81;27.40;100178.84;10371015;28;98550;-84
2022/07/06 17:28:46;;;;;;;1.40;0.63;;;29.00;42.30;;;27.60;27.61;100173.47;10360007;28;96598;-83
2022/07/06 17:33:49;;;;;;;2.80;0.60;;;28.80;42.50;;;27.32;27.69;100163.25;10370122;28;96665;-84
2022/07/06 17:38:52;;;;;;;2.25;0.80;;;28.50;42.20;;;26.87;27.42;100174.00;10354354;28;96610;-83
2022/07/06 17:43:55;;;;;;;1.67;0.60;;;28.10;42.10;;;26.45;28.18;100179.78;10352196;28;96969;-83
2022/07/06 17:48:58;;;;;;;1.52;0.50;;;27.60;42.50;;;26.19;28.54;100186.28;10349253;28;98422;-83
2022/07/06 17:54:01;;;;;;;1.77;0.70;;;27.30;42.90;;;25.91;28.92;100188.44;10349553;28;96838;-83
2022/07/06 17:59:04;;;;;;;0.70;0.60;;;27.00;43.20;;;25.68;29.31;100192.44;10353992;28;98278;-83
2022/07/06 18:04:07;;;;;;;1.38;0.73;;;26.80;43.60;;;25.41;29.70;100202.66;10372565;28;96738;-83
2022/07/06 18:09:10;;;;;;;1.08;0.70;;;26.60;43.90;;;25.17;30.34;100210.44;10353448;28;96756;-83
2022/07/06 18:14:13;;;;;;;1.95;0.75;;;26.30;44.30;;;24.92;30.63;100219.22;10372563;28;96646;-82
2022/07/06 18:19:16;;;;;;;0.82;0.73;;;26.10;44.70;;;24.70;31.11;100231.03;10352811;28;97510;-83
2022/07/06 18:24:18;;;;;;;2.53;0.80;;;25.90;45.20;;;24.50;31.87;100233.59;10350302;28;97637;-83
2022/07/06 18:29:22;;;;;;;1.65;0.77;;;25.60;45.60;;;24.32;32.56;100228.50;10353310;28;98403;-83
2022/07/06 18:34:25;;;;;;;1.25;0.85;;;25.40;46.20;;;24.12;33.16;100227.25;10370919;28;96781;-83
2022/07/06 18:39:28;;;;;;;3.72;1.20;;;25.30;47.00;;;23.97;33.66;100229.78;10352331;28;96903;-83
2022/07/06 18:44:31;;;;;;;1.50;1.00;;;25.10;47.40;;;23.81;34.25;100227.97;10349556;28;97280;-84
2022/07/06 18:49:34;;;;;;;2.72;1.90;;;24.90;47.90;;;23.59;34.69;100223.38;10351615;28;97406;-83
2022/07/06 18:54:38;;;;;;;2.53;1.70;;;24.80;48.50;;;23.34;35.52;100226.59;10346087;28;96820;-84
2022/07/06 18:59:41;;;;;;;4.75;2.38;;;24.50;49.10;;;23.15;35.80;100238.78;10333992;28;98266;-84
2022/07/06 19:04:45;;;;;;;2.67;1.40;;;24.30;49.40;;;22.91;36.30;100239.00;10341307;28;97484;-83
2022/07/06 19:09:49;;;;;;;1.65;1.00;;;24.10;49.90;;;22.70;36.88;100231.59;10353110;28;98635;-83
2022/07/06 19:14:53;;;;;;;4.40;1.40;;;23.90;50.50;;;22.49;37.73;100243.13;10372910;28;97501;-83
2022/07/06 19:19:56;;;;;;;4.47;1.70;;;23.60;51.10;;;22.26;38.23;100242.22;10337934;28;96876;-83
2022/07/06 19:25:00;;;;;;;2.33;1.58;;;23.50;51.50;;;22.07;38.22;100248.88;10335606;28;97080;-83
2022/07/06 19:30:05;;;;;;;4.40;1.88;;;23.30;51.90;;;21.97;38.45;100248.69;10375368;28;96620;-82
2022/07/06 19:35:09;;;;;;;2.15;1.40;;;23.10;52.20;;;21.83;38.97;100248.13;10339890;28;96692;-83
2022/07/06 19:40:14;;;;;;;2.45;1.30;;;23.00;52.40;;;21.64;39.43;100256.41;10374036;28;97188;-83
2022/07/06 19:45:17;;;;;;;4.50;1.70;;;22.80;52.90;;;21.50;39.79;100270.47;10358209;28;96773;-83
2022/07/06 19:50:19;;;;;;;2.97;1.70;;;22.60;53.20;;;21.30;40.23;100265.44;10350770;28;97362;-83
2022/07/06 19:55:22;;;;;;;2.67;1.40;;;22.50;53.70;;;21.10;41.37;100268.44;10319629;28;96477;-83
2022/07/06 20:00:26;;;;;;;3.15;1.15;;;22.30;54.30;;;20.94;41.66;100277.28;10358658;28;96945;-83
2022/07/06 20:05:29;;;;;;;2.17;1.10;;;22.10;54.70;;;20.78;41.67;100273.38;10372128;28;96561;-83
2022/07/06 20:10:33;;;;;;;1.75;1.00;;;22.00;55.30;;;20.67;42.36;100272.28;10368465;28;96812;-83
2022/07/06 20:15:35;;;;;;;2.45;1.05;;;21.80;55.60;;;20.61;42.51;100281.31;10353876;28;98264;-83
2022/07/06 20:20:39;;;;;;;3.05;1.20;;;21.80;55.80;;;20.52;42.67;100274.63;10353435;28;96743;-83
2022/07/06 20:25:42;;;;;;;1.38;1.00;;;21.70;56.00;;;20.44;43.17;100275.72;10355550;28;98314;-83
2022/07/06 20:30:45;;;;;;;1.33;0.93;;;21.60;56.20;;;20.36;43.43;100286.88;10373126;28;96654;-82
2022/07/06 20:35:48;;;;;;;1.60;1.00;;;21.50;56.50;;;20.27;43.60;100294.47;10364017;28;97988;-83
2022/07/06 20:40:50;;;;;;;3.70;0.82;;;21.40;56.60;;;20.15;43.15;100288.22;10372495;28;96996;-83
2022/07/06 20:45:53;;;;;;;1.10;0.80;;;21.40;56.50;;;20.08;43.27;100289.34;10369745;28;98704;-84
2022/07/06 20:50:57;;;;;;;1.17;0.70;;;21.30;56.40;;;20.04;42.96;100287.09;10373052;28;96905;-83